Time;durP1;ratioP1;P1;durP2;ratioP2;P2;SDS_P1;SDS_P2;PMS_P1;PMS_P2;Temp;Humidity;BMP_temperature;BMP_pressure;BME280_temperature;BME280_humidity;BME280_pressure;Samples;Min_cycle;Max_cycle;Signal;HPM_P1;HPM_P2
2023/01/08 00:01:30;;;;;;;;;6.00;5.00;;;;;;;;5014258;28;45284;-76
2023/01/08 00:03:55;;;;;;;;;7.00;5.75;;;;;;;;5009662;28;45240;-75
2023/01/08 00:06:21;;;;;;;;;5.75;5.75;;;;;;;;5015575;28;45466;-76
2023/01/08 00:08:46;;;;;;;;;4.50;4.50;;;;;;;;5011749;28;45230;-77
2023/01/08 00:11:12;;;;;;;;;6.25;4.25;;;;;;;;5014286;28;45374;-76
2023/01/08 00:13:37;;;;;;;;;6.50;4.00;;;;;;;;5011558;28;45375;-78
2023/01/08 00:16:07;;;;;;;;;6.00;3.00;;;;;;;;5015940;28;45210;-77
2023/01/08 00:18:32;;;;;;;;;7.00;5.00;;;;;;;;5008034;28;45838;-79
2023/01/08 00:20:58;;;;;;;;;5.00;5.00;;;;;;;;5005186;28;45580;-76
2023/01/08 00:23:23;;;;;;;;;3.00;3.00;;;;;;;;5004917;28;45467;-77
2023/01/08 00:25:48;;;;;;;;;6.50;6.00;;;;;;;;5016210;28;45323;-76
2023/01/08 00:28:14;;;;;;;;;8.00;4.75;;;;;;;;5005740;28;45217;-76
2023/01/08 00:30:39;;;;;;;;;5.00;5.00;;;;;;;;5006793;28;46256;-76
2023/01/08 00:33:04;;;;;;;;;4.75;4.75;;;;;;;;5018074;28;45234;-76
2023/01/08 00:35:29;;;;;;;;;3.25;2.00;;;;;;;;5004906;28;45264;-76
2023/01/08 00:37:55;;;;;;;;;4.00;4.00;;;;;;;;5004523;28;45296;-77
2023/01/08 00:40:20;;;;;;;;;6.25;5.00;;;;;;;;5021564;28;45457;-76
2023/01/08 00:42:45;;;;;;;;;4.75;4.75;;;;;;;;5008431;28;45219;-76
2023/01/08 00:45:10;;;;;;;;;3.75;3.75;;;;;;;;5010713;28;45464;-78
2023/01/08 00:47:35;;;;;;;;;7.00;4.00;;;;;;;;5018338;28;46049;-76
2023/01/08 00:50:01;;;;;;;;;4.50;4.50;;;;;;;;5010994;28;46041;-77
2023/01/08 00:52:26;;;;;;;;;7.25;4.00;;;;;;;;5019518;28;45855;-79
2023/01/08 00:54:51;;;;;;;;;4.00;4.00;;;;;;;;5012551;28;45459;-77
2023/01/08 00:57:17;;;;;;;;;4.00;4.00;;;;;;;;5017281;28;45449;-77
2023/01/08 00:59:43;;;;;;;;;4.50;4.50;;;;;;;;5019872;28;46089;-77
2023/01/08 01:02:09;;;;;;;;;4.50;4.50;;;;;;;;5019168;28;45335;-77
2023/01/08 01:04:34;;;;;;;;;5.25;3.00;;;;;;;;5019862;28;45328;-77
2023/01/08 01:06:59;;;;;;;;;4.75;4.75;;;;;;;;5014541;28;45474;-76
2023/01/08 01:09:25;;;;;;;;;7.00;5.00;;;;;;;;5016153;28;45576;-77
2023/01/08 01:11:50;;;;;;;;;4.25;4.25;;;;;;;;5020071;28;44992;-77
2023/01/08 01:14:15;;;;;;;;;6.75;5.00;;;;;;;;5013676;28;45295;-78
2023/01/08 01:16:41;;;;;;;;;5.50;4.75;;;;;;;;5016428;28;45490;-79
2023/01/08 01:19:07;;;;;;;;;5.25;4.00;;;;;;;;5009859;28;45458;-77
2023/01/08 01:21:32;;;;;;;;;4.50;4.50;;;;;;;;5010569;28;44785;-77
2023/01/08 01:23:58;;;;;;;;;3.00;2.25;;;;;;;;5011547;28;45425;-77
2023/01/08 01:26:24;;;;;;;;;8.50;4.00;;;;;;;;5019144;28;45462;-76
2023/01/08 01:28:51;;;;;;;;;5.00;5.00;;;;;;;;5011839;28;46627;-76
2023/01/08 01:31:16;;;;;;;;;3.00;3.00;;;;;;;;5018839;28;45213;-76
2023/01/08 01:33:41;;;;;;;;;1.25;1.25;;;;;;;;5008166;28;45202;-75
2023/01/08 01:36:08;;;;;;;;;3.00;3.00;;;;;;;;5018568;28;45493;-75
2023/01/08 01:38:33;;;;;;;;;6.00;6.00;;;;;;;;5003073;28;45439;-78
2023/01/08 01:40:58;;;;;;;;;5.75;3.50;;;;;;;;5011740;28;45693;-77
2023/01/08 01:43:32;;;;;;;;;5.25;3.50;;;;;;;;5007565;28;45368;-78
2023/01/08 01:45:58;;;;;;;;;4.75;4.75;;;;;;;;5014328;28;45512;-76
2023/01/08 01:48:23;;;;;;;;;7.00;4.50;;;;;;;;5010751;28;46434;-76
2023/01/08 01:50:50;;;;;;;;;6.50;5.00;;;;;;;;5014582;28;45446;-76
2023/01/08 01:53:18;;;;;;;;;4.25;3.25;;;;;;;;5011151;28;45557;-78
2023/01/08 01:55:44;;;;;;;;;6.00;5.00;;;;;;;;5016202;28;47626;-78
2023/01/08 01:58:15;;;;;;;;;7.50;5.00;;;;;;;;5010886;28;47071;-78
2023/01/08 02:00:41;;;;;;;;;5.25;4.25;;;;;;;;5004806;28;45261;-77
2023/01/08 02:03:08;;;;;;;;;2.50;2.25;;;;;;;;5010719;28;45469;-78
2023/01/08 02:05:49;;;;;;;;;4.25;3.50;;;;;;;;5014726;28;46153;-78
2023/01/08 02:08:24;;;;;;;;;4.00;4.00;;;;;;;;5011808;28;47427;-77
2023/01/08 02:10:49;;;;;;;;;3.25;3.00;;;;;;;;5018583;28;44819;-79
2023/01/08 02:13:30;;;;;;;;;6.00;4.25;;;;;;;;5015664;28;45319;-78
2023/01/08 02:15:57;;;;;;;;;3.25;3.25;;;;;;;;5006847;28;45410;-80
2023/01/08 02:18:36;;;;;;;;;7.00;3.75;;;;;;;;5013340;28;47194;-79
2023/01/08 02:21:09;;;;;;;;;3.00;3.00;;;;;;;;5018041;28;45484;-79
2023/01/08 02:23:45;;;;;;;;;4.00;3.00;;;;;;;;5009891;28;45327;-77
2023/01/08 02:26:16;;;;;;;;;4.50;3.25;;;;;;;;5015964;28;46061;-78
2023/01/08 02:28:48;;;;;;;;;5.50;5.00;;;;;;;;5017513;28;48537;-78
2023/01/08 02:31:15;;;;;;;;;3.50;2.75;;;;;;;;5017878;28;45329;-78
2023/01/08 02:33:40;;;;;;;;;3.75;2.75;;;;;;;;5007512;28;45247;-80
2023/01/08 02:36:11;;;;;;;;;3.00;3.00;;;;;;;;5015223;28;45973;-78
2023/01/08 02:38:41;;;;;;;;;4.50;2.75;;;;;;;;5007238;28;45292;-77
2023/01/08 02:41:09;;;;;;;;;5.25;3.00;;;;;;;;5019120;28;45220;-78
2023/01/08 02:43:39;;;;;;;;;5.75;3.00;;;;;;;;5011724;28;45507;-77
2023/01/08 02:46:05;;;;;;;;;5.00;3.25;;;;;;;;5017005;28;45845;-76
2023/01/08 02:48:30;;;;;;;;;3.25;1.75;;;;;;;;5013422;28;46174;-77
2023/01/08 02:51:08;;;;;;;;;4.50;4.00;;;;;;;;5018255;28;45692;-77
2023/01/08 02:53:36;;;;;;;;;3.75;3.75;;;;;;;;5008115;28;45374;-77
2023/01/08 02:56:06;;;;;;;;;2.25;2.00;;;;;;;;5014122;28;45469;-77
2023/01/08 02:58:34;;;;;;;;;5.00;2.00;;;;;;;;5008771;28;46576;-77
2023/01/08 03:01:01;;;;;;;;;4.50;4.50;;;;;;;;5013905;28;45469;-77
2023/01/08 03:03:28;;;;;;;;;3.25;3.25;;;;;;;;5010360;28;45344;-77
2023/01/08 03:06:01;;;;;;;;;3.00;2.00;;;;;;;;5016341;28;45519;-79
2023/01/08 03:08:26;;;;;;;;;3.50;2.00;;;;;;;;5016266;28;46570;-78
2023/01/08 03:10:55;;;;;;;;;2.25;2.25;;;;;;;;5017744;28;45418;-77
2023/01/08 03:13:25;;;;;;;;;3.00;3.00;;;;;;;;5001202;28;45260;-76
2023/01/08 03:15:52;;;;;;;;;3.00;2.00;;;;;;;;5009239;28;45694;-77
2023/01/08 03:18:24;;;;;;;;;4.00;1.00;;;;;;;;5005531;28;45560;-79
2023/01/08 03:20:50;;;;;;;;;2.25;1.50;;;;;;;;5009899;28;45521;-77
2023/01/08 03:23:16;;;;;;;;;2.50;1.00;;;;;;;;5006602;28;45289;-77
2023/01/08 03:25:44;;;;;;;;;6.00;2.00;;;;;;;;5019353;28;45325;-77
2023/01/08 03:28:15;;;;;;;;;1.50;1.00;;;;;;;;5009981;28;45220;-78
2023/01/08 03:30:41;;;;;;;;;2.50;2.00;;;;;;;;5017893;28;45418;-77
2023/01/08 03:33:09;;;;;;;;;3.50;2.00;;;;;;;;5007006;28;45427;-77
2023/01/08 03:35:36;;;;;;;;;7.00;2.00;;;;;;;;5013200;28;45503;-79
2023/01/08 03:38:04;;;;;;;;;0.50;0.00;;;;;;;;5009016;28;45469;-77
2023/01/08 03:40:42;;;;;;;;;2.00;2.00;;;;;;;;5013170;28;45439;-77
2023/01/08 03:43:07;;;;;;;;;4.00;3.00;;;;;;;;5013117;28;45649;-77
2023/01/08 03:45:34;;;;;;;;;3.50;2.25;;;;;;;;5008810;28;46248;-77
2023/01/08 03:48:01;;;;;;;;;2.00;1.00;;;;;;;;5013607;28;45379;-80
2023/01/08 03:50:27;;;;;;;;;3.00;2.00;;;;;;;;5015162;28;45347;-77
2023/01/08 03:52:52;;;;;;;;;2.25;2.25;;;;;;;;5009414;28;45229;-77
2023/01/08 03:55:17;;;;;;;;;3.50;1.00;;;;;;;;5010623;28;45305;-77
2023/01/08 03:57:43;;;;;;;;;2.25;2.25;;;;;;;;5011562;28;45387;-78
2023/01/08 04:00:08;;;;;;;;;2.50;2.00;;;;;;;;5017412;28;45416;-78
2023/01/08 04:02:34;;;;;;;;;2.00;1.00;;;;;;;;5014052;28;45432;-78
2023/01/08 04:04:59;;;;;;;;;3.75;2.00;;;;;;;;5016604;28;47364;-76
2023/01/08 04:07:24;;;;;;;;;5.00;2.00;;;;;;;;5011610;28;45478;-77
2023/01/08 04:09:49;;;;;;;;;1.00;1.00;;;;;;;;5018435;28;45453;-77
2023/01/08 04:12:14;;;;;;;;;3.00;2.00;;;;;;;;5009308;28;45297;-78
2023/01/08 04:14:40;;;;;;;;;3.50;2.00;;;;;;;;5008754;28;46258;-77
2023/01/08 04:17:05;;;;;;;;;1.25;1.25;;;;;;;;5009794;28;46306;-77
2023/01/08 04:19:30;;;;;;;;;2.00;2.00;;;;;;;;5020377;28;45268;-77
2023/01/08 04:21:55;;;;;;;;;1.75;1.00;;;;;;;;5026461;28;45433;-77
2023/01/08 04:24:21;;;;;;;;;2.50;1.75;;;;;;;;5015978;28;45380;-76
2023/01/08 04:26:46;;;;;;;;;4.50;1.50;;;;;;;;5016110;28;45284;-78
2023/01/08 04:29:11;;;;;;;;;3.00;1.75;;;;;;;;5016718;28;45281;-78
2023/01/08 04:31:37;;;;;;;;;4.00;2.00;;;;;;;;5015462;28;44948;-77
2023/01/08 04:34:02;;;;;;;;;5.75;2.50;;;;;;;;5008885;28;45477;-79
2023/01/08 04:36:27;;;;;;;;;2.50;1.00;;;;;;;;5011076;28;45276;-78
2023/01/08 04:38:53;;;;;;;;;1.50;1.00;;;;;;;;5007427;28;45441;-76
2023/01/08 04:41:18;;;;;;;;;3.00;2.00;;;;;;;;5014024;28;45422;-77
2023/01/08 04:43:43;;;;;;;;;2.50;1.00;;;;;;;;5002492;28;45273;-78
2023/01/08 04:46:09;;;;;;;;;3.75;2.00;;;;;;;;5008349;28;45964;-77
2023/01/08 04:48:34;;;;;;;;;1.00;1.00;;;;;;;;5005757;28;45386;-79
2023/01/08 04:51:01;;;;;;;;;4.75;1.25;;;;;;;;5012056;28;45300;-78
2023/01/08 04:53:27;;;;;;;;;1.00;1.00;;;;;;;;5007178;28;45157;-76
2023/01/08 04:55:53;;;;;;;;;2.25;1.00;;;;;;;;5012341;28;44983;-77
2023/01/08 04:58:18;;;;;;;;;0.50;0.50;;;;;;;;5012981;28;45738;-77
2023/01/08 05:00:43;;;;;;;;;1.00;1.00;;;;;;;;5014893;28;45543;-77
2023/01/08 05:03:08;;;;;;;;;3.50;1.00;;;;;;;;5011291;28;44960;-77
2023/01/08 05:05:34;;;;;;;;;2.00;2.00;;;;;;;;5013721;28;45243;-77
2023/01/08 05:07:59;;;;;;;;;1.25;1.00;;;;;;;;5010188;28;45181;-78
2023/01/08 05:10:25;;;;;;;;;2.00;1.00;;;;;;;;5014014;28;45220;-77
2023/01/08 05:12:50;;;;;;;;;3.00;1.50;;;;;;;;5005695;28;45232;-77
2023/01/08 05:15:15;;;;;;;;;1.00;1.00;;;;;;;;5014446;28;45442;-77
2023/01/08 05:17:40;;;;;;;;;1.00;1.00;;;;;;;;5007786;28;45471;-77
2023/01/08 05:20:07;;;;;;;;;1.25;1.00;;;;;;;;5023106;28;45291;-77
2023/01/08 05:22:32;;;;;;;;;1.00;1.00;;;;;;;;5012634;28;45445;-76
2023/01/08 05:24:57;;;;;;;;;2.00;1.00;;;;;;;;5020426;28;45445;-75
2023/01/08 05:27:22;;;;;;;;;3.00;1.00;;;;;;;;5008593;28;45461;-77
2023/01/08 05:29:48;;;;;;;;;0.50;0.00;;;;;;;;5016200;28;45367;-77
2023/01/08 05:32:14;;;;;;;;;2.50;1.25;;;;;;;;5012458;28;45504;-77
2023/01/08 05:34:39;;;;;;;;;1.00;1.00;;;;;;;;5011026;28;46354;-82
2023/01/08 05:37:04;;;;;;;;;3.00;2.00;;;;;;;;5019867;28;45510;-83
2023/01/08 05:39:29;;;;;;;;;1.00;0.00;;;;;;;;5010668;28;45423;-80
2023/01/08 05:41:54;;;;;;;;;0.00;0.00;;;;;;;;5012792;28;45478;-78
2023/01/08 05:44:20;;;;;;;;;0.00;0.00;;;;;;;;5011547;28;45950;-78
2023/01/08 05:46:45;;;;;;;;;0.00;0.00;;;;;;;;5021742;28;45375;-80
2023/01/08 05:49:10;;;;;;;;;0.00;0.00;;;;;;;;5011805;28;45237;-76
2023/01/08 05:51:35;;;;;;;;;0.00;0.00;;;;;;;;5016763;28;45221;-76
2023/01/08 05:54:01;;;;;;;;;0.00;0.00;;;;;;;;5012050;28;45465;-75
2023/01/08 05:56:26;;;;;;;;;0.00;0.00;;;;;;;;5017666;28;45304;-75
2023/01/08 05:58:53;;;;;;;;;1.00;0.00;;;;;;;;5010513;28;45259;-75
2023/01/08 06:01:18;;;;;;;;;0.00;0.00;;;;;;;;5018519;28;45283;-74
2023/01/08 06:03:43;;;;;;;;;0.00;0.00;;;;;;;;5017893;28;45257;-75
2023/01/08 06:06:09;;;;;;;;;1.00;0.00;;;;;;;;5018664;28;45261;-75
2023/01/08 06:08:34;;;;;;;;;0.00;0.00;;;;;;;;5004053;28;45323;-77
2023/01/08 06:11:01;;;;;;;;;0.00;0.00;;;;;;;;5018663;28;45329;-75
2023/01/08 06:13:26;;;;;;;;;0.00;0.00;;;;;;;;5004666;28;45528;-75
2023/01/08 06:15:51;;;;;;;;;1.00;0.00;;;;;;;;5017969;28;45267;-76
2023/01/08 06:18:17;;;;;;;;;0.00;0.00;;;;;;;;5005060;28;45684;-76
2023/01/08 06:20:42;;;;;;;;;0.00;0.00;;;;;;;;5020670;28;46961;-74
2023/01/08 06:23:08;;;;;;;;;1.25;0.00;;;;;;;;5009995;28;45964;-76
2023/01/08 06:25:33;;;;;;;;;0.00;0.00;;;;;;;;5018769;28;45263;-75
2023/01/08 06:27:58;;;;;;;;;1.00;0.00;;;;;;;;5007632;28;45458;-76
2023/01/08 06:30:24;;;;;;;;;0.00;0.00;;;;;;;;5019665;28;45334;-74
2023/01/08 06:32:49;;;;;;;;;0.00;0.00;;;;;;;;5010380;28;46557;-75
2023/01/08 06:35:14;;;;;;;;;0.00;0.00;;;;;;;;5007290;28;45358;-75
2023/01/08 06:37:39;;;;;;;;;0.00;0.00;;;;;;;;5011912;28;45448;-76
2023/01/08 06:40:05;;;;;;;;;1.00;0.00;;;;;;;;5008301;28;45394;-75
2023/01/08 06:42:30;;;;;;;;;0.00;0.00;;;;;;;;5017787;28;45386;-76
2023/01/08 06:44:55;;;;;;;;;0.25;0.00;;;;;;;;5008239;28;45305;-75
2023/01/08 06:47:20;;;;;;;;;0.00;0.00;;;;;;;;5010362;28;45358;-76
2023/01/08 06:49:46;;;;;;;;;0.00;0.00;;;;;;;;5009484;28;45378;-76
2023/01/08 06:52:11;;;;;;;;;0.00;0.00;;;;;;;;5011760;28;46870;-75
2023/01/08 06:54:36;;;;;;;;;0.00;0.00;;;;;;;;5008895;28;45355;-78
2023/01/08 06:57:01;;;;;;;;;0.50;0.00;;;;;;;;5014669;28;45256;-75
2023/01/08 06:59:27;;;;;;;;;0.00;0.00;;;;;;;;5010267;28;45245;-75
2023/01/08 07:01:52;;;;;;;;;0.00;0.00;;;;;;;;5011025;28;45820;-75
2023/01/08 07:04:17;;;;;;;;;0.50;0.00;;;;;;;;5011429;28;45429;-76
2023/01/08 07:06:43;;;;;;;;;0.00;0.00;;;;;;;;5014170;28;45597;-76
2023/01/08 07:09:11;;;;;;;;;0.00;0.00;;;;;;;;5000142;28;45919;-75
2023/01/08 07:11:36;;;;;;;;;0.00;0.00;;;;;;;;4999922;28;45412;-77
2023/01/08 07:14:01;;;;;;;;;0.50;0.00;;;;;;;;5000265;28;45350;-76
2023/01/08 07:16:27;;;;;;;;;0.00;0.00;;;;;;;;5001387;28;45322;-76
2023/01/08 07:18:52;;;;;;;;;1.25;1.00;;;;;;;;5000551;28;46562;-76
2023/01/08 07:21:19;;;;;;;;;0.00;0.00;;;;;;;;5000042;28;45639;-75
2023/01/08 07:23:46;;;;;;;;;0.00;0.00;;;;;;;;5001637;28;44698;-76
2023/01/08 07:26:12;;;;;;;;;0.00;0.00;;;;;;;;5001017;28;45225;-75
2023/01/08 07:28:37;;;;;;;;;0.00;0.00;;;;;;;;4997471;28;47061;-76
2023/01/08 07:31:03;;;;;;;;;0.00;0.00;;;;;;;;4999302;28;45605;-76
2023/01/08 07:33:29;;;;;;;;;0.00;0.00;;;;;;;;5003207;28;45453;-75
2023/01/08 07:35:54;;;;;;;;;3.00;0.00;;;;;;;;4998869;28;44627;-75
2023/01/08 07:38:20;;;;;;;;;0.00;0.00;;;;;;;;5001129;28;45296;-76
2023/01/08 07:40:45;;;;;;;;;0.00;0.00;;;;;;;;4997818;28;45256;-73
2023/01/08 07:43:11;;;;;;;;;0.25;0.25;;;;;;;;5004151;28;44745;-78
2023/01/08 07:45:37;;;;;;;;;0.00;0.00;;;;;;;;5011643;28;44836;-78
2023/01/08 07:48:02;;;;;;;;;1.00;0.00;;;;;;;;5016001;28;45441;-77
2023/01/08 07:50:28;;;;;;;;;0.00;0.00;;;;;;;;5014994;28;45335;-76
2023/01/08 07:52:57;;;;;;;;;0.00;0.00;;;;;;;;5004355;28;45567;-76
2023/01/08 07:55:22;;;;;;;;;0.00;0.00;;;;;;;;5010279;28;45306;-78
2023/01/08 07:57:47;;;;;;;;;0.25;0.00;;;;;;;;5014589;28;45378;-76
2023/01/08 08:00:13;;;;;;;;;0.25;0.25;;;;;;;;5017479;28;47570;-76
2023/01/08 08:02:38;;;;;;;;;1.25;0.25;;;;;;;;5016453;28;45387;-76
2023/01/08 08:05:04;;;;;;;;;0.50;0.00;;;;;;;;5022568;28;45532;-75
2023/01/08 08:07:29;;;;;;;;;0.00;0.00;;;;;;;;5006429;28;45513;-76
2023/01/08 08:09:55;;;;;;;;;1.00;0.00;;;;;;;;5010463;28;48034;-76
2023/01/08 08:12:20;;;;;;;;;0.00;0.00;;;;;;;;5011593;28;45508;-75
2023/01/08 08:14:45;;;;;;;;;0.00;0.00;;;;;;;;5011148;28;45280;-75
2023/01/08 08:17:10;;;;;;;;;3.00;0.00;;;;;;;;5011088;28;45429;-75
2023/01/08 08:19:35;;;;;;;;;2.50;0.75;;;;;;;;5020747;28;46017;-75
2023/01/08 08:22:01;;;;;;;;;0.75;0.00;;;;;;;;5013667;28;45338;-75
2023/01/08 08:24:26;;;;;;;;;0.00;0.00;;;;;;;;5014087;28;45427;-74
2023/01/08 08:26:53;;;;;;;;;0.00;0.00;;;;;;;;5012403;28;45430;-74
2023/01/08 08:29:18;;;;;;;;;0.00;0.00;;;;;;;;5014477;28;46170;-74
2023/01/08 08:31:43;;;;;;;;;0.00;0.00;;;;;;;;5013484;28;45353;-74
2023/01/08 08:34:08;;;;;;;;;0.00;0.00;;;;;;;;5007173;28;45905;-74
2023/01/08 08:36:34;;;;;;;;;3.75;0.00;;;;;;;;5009308;28;46880;-75
2023/01/08 08:39:00;;;;;;;;;0.00;0.00;;;;;;;;5012001;28;45905;-75
2023/01/08 08:41:26;;;;;;;;;1.00;1.00;;;;;;;;5012794;28;45201;-75
2023/01/08 08:43:51;;;;;;;;;0.75;0.75;;;;;;;;5013223;28;45485;-75
2023/01/08 08:46:17;;;;;;;;;0.25;0.25;;;;;;;;5016064;28;45477;-75
2023/01/08 08:48:45;;;;;;;;;1.75;1.25;;;;;;;;5004395;28;45224;-74
2023/01/08 08:51:10;;;;;;;;;0.75;0.00;;;;;;;;5014194;28;45464;-75
2023/01/08 08:53:36;;;;;;;;;0.25;0.25;;;;;;;;5012292;28;45587;-75
2023/01/08 08:56:01;;;;;;;;;0.50;0.00;;;;;;;;5012429;28;45474;-75
2023/01/08 08:58:26;;;;;;;;;0.00;0.00;;;;;;;;5007221;28;45366;-75
2023/01/08 09:00:51;;;;;;;;;0.00;0.00;;;;;;;;5020336;28;45370;-75
2023/01/08 09:03:17;;;;;;;;;1.00;0.00;;;;;;;;5013244;28;45325;-75
2023/01/08 09:05:42;;;;;;;;;0.50;0.50;;;;;;;;5018013;28;46070;-75
2023/01/08 09:08:08;;;;;;;;;1.75;0.00;;;;;;;;5008742;28;45383;-75
2023/01/08 09:10:35;;;;;;;;;1.50;0.00;;;;;;;;5019151;28;45307;-75
2023/01/08 09:13:00;;;;;;;;;0.25;0.25;;;;;;;;5016767;28;45461;-75
2023/01/08 09:15:25;;;;;;;;;1.75;0.00;;;;;;;;5020761;28;46826;-74
2023/01/08 09:17:54;;;;;;;;;2.00;1.00;;;;;;;;5009811;28;45964;-75
2023/01/08 09:20:19;;;;;;;;;0.00;0.00;;;;;;;;5028722;28;45368;-75
2023/01/08 09:22:45;;;;;;;;;2.75;1.00;;;;;;;;5015612;28;45275;-75
2023/01/08 09:25:11;;;;;;;;;0.00;0.00;;;;;;;;5016344;28;45469;-75
2023/01/08 09:27:36;;;;;;;;;0.50;0.50;;;;;;;;5014660;28;47021;-75
2023/01/08 09:30:01;;;;;;;;;0.00;0.00;;;;;;;;5018063;28;45291;-74
2023/01/08 09:32:26;;;;;;;;;1.50;0.25;;;;;;;;5016598;28;45345;-75
2023/01/08 09:34:53;;;;;;;;;0.00;0.00;;;;;;;;5021698;28;45406;-78
2023/01/08 09:37:18;;;;;;;;;0.00;0.00;;;;;;;;5009270;28;48320;-73
2023/01/08 09:39:44;;;;;;;;;0.50;0.50;;;;;;;;5006453;28;45292;-75
2023/01/08 09:42:10;;;;;;;;;0.00;0.00;;;;;;;;5011254;28;45309;-74
2023/01/08 09:44:41;;;;;;;;;0.25;0.25;;;;;;;;5007405;28;45301;-73
2023/01/08 09:47:19;;;;;;;;;0.00;0.00;;;;;;;;5005716;28;46699;-74
2023/01/08 09:49:46;;;;;;;;;0.25;0.25;;;;;;;;5010169;28;45498;-74
2023/01/08 09:52:12;;;;;;;;;2.00;0.00;;;;;;;;5016289;28;45487;-72
2023/01/08 09:54:38;;;;;;;;;1.00;1.00;;;;;;;;5011517;28;45459;-73
2023/01/08 09:57:04;;;;;;;;;2.00;0.00;;;;;;;;5017297;28;48054;-73
2023/01/08 09:59:30;;;;;;;;;0.25;0.25;;;;;;;;5012091;28;45132;-73
2023/01/08 10:01:55;;;;;;;;;1.00;1.00;;;;;;;;5009905;28;45161;-73
2023/01/08 10:04:22;;;;;;;;;0.00;0.00;;;;;;;;5021826;28;44821;-74
2023/01/08 10:06:49;;;;;;;;;0.00;0.00;;;;;;;;5009907;28;46144;-76
2023/01/08 10:09:14;;;;;;;;;0.00;0.00;;;;;;;;5006529;28;45775;-75
2023/01/08 10:11:45;;;;;;;;;1.00;1.00;;;;;;;;5015661;28;45376;-73
2023/01/08 10:14:18;;;;;;;;;0.00;0.00;;;;;;;;5010772;28;45568;-73
2023/01/08 10:16:51;;;;;;;;;2.25;0.00;;;;;;;;5009273;28;45517;-74
2023/01/08 10:19:17;;;;;;;;;0.25;0.25;;;;;;;;5016389;28;45377;-73
2023/01/08 10:21:42;;;;;;;;;0.25;0.00;;;;;;;;5007307;28;45513;-73
2023/01/08 10:24:07;;;;;;;;;1.50;1.00;;;;;;;;5010087;28;45284;-73
2023/01/08 10:26:36;;;;;;;;;0.00;0.00;;;;;;;;5016108;28;45385;-73
2023/01/08 10:29:05;;;;;;;;;0.00;0.00;;;;;;;;5010493;28;45427;-74
2023/01/08 10:31:31;;;;;;;;;0.25;0.00;;;;;;;;5002746;28;45516;-74
2023/01/08 10:33:56;;;;;;;;;2.00;1.00;;;;;;;;5008388;28;45250;-75
2023/01/08 10:36:22;;;;;;;;;0.25;0.00;;;;;;;;5003516;28;45143;-75
2023/01/08 10:38:48;;;;;;;;;0.00;0.00;;;;;;;;5007562;28;45306;-74
2023/01/08 10:41:14;;;;;;;;;1.00;1.00;;;;;;;;5012613;28;45154;-75
2023/01/08 10:43:58;;;;;;;;;5.25;2.75;;;;;;;;5012988;28;45460;-74
2023/01/08 10:46:23;;;;;;;;;2.50;1.00;;;;;;;;5015675;28;46019;-74
2023/01/08 10:48:56;;;;;;;;;0.00;0.00;;;;;;;;5013667;28;45307;-75
2023/01/08 10:51:28;;;;;;;;;3.00;0.00;;;;;;;;5015106;28;45467;-74
2023/01/08 10:53:55;;;;;;;;;0.00;0.00;;;;;;;;5015272;28;45323;-73
2023/01/08 10:56:28;;;;;;;;;1.50;0.25;;;;;;;;5015517;28;46117;-74
2023/01/08 10:58:54;;;;;;;;;2.00;0.00;;;;;;;;5013575;28;45459;-75
2023/01/08 11:01:27;;;;;;;;;0.75;0.75;;;;;;;;5015217;28;45529;-75
2023/01/08 11:04:00;;;;;;;;;2.00;0.25;;;;;;;;5014911;28;45315;-74
2023/01/08 11:06:26;;;;;;;;;1.50;0.00;;;;;;;;5014625;28;46839;-73
2023/01/08 11:08:53;;;;;;;;;0.50;0.50;;;;;;;;5015750;28;45335;-74
2023/01/08 11:11:18;;;;;;;;;2.67;0.67;;;;;;;;5015882;28;45327;-74
2023/01/08 11:13:53;;;;;;;;;1.67;0.67;;;;;;;;5013631;28;45267;-75
2023/01/08 11:16:18;;;;;;;;;1.00;0.00;;;;;;;;5014417;28;45500;-74
2023/01/08 11:18:48;;;;;;;;;1.67;1.00;;;;;;;;5014542;28;44851;-75
2023/01/08 11:21:27;;;;;;;;;0.50;0.00;;;;;;;;5016791;28;45565;-75
2023/01/08 11:24:01;;;;;;;;;1.00;1.00;;;;;;;;5016606;28;45475;-74
2023/01/08 11:26:27;;;;;;;;;2.25;0.50;;;;;;;;5014439;28;46806;-76
2023/01/08 11:28:58;;;;;;;;;2.00;0.00;;;;;;;;5017677;28;45335;-76
2023/01/08 11:31:46;;;;;;;;;2.00;1.00;;;;;;;;4998127;28;45450;-76
2023/01/08 11:34:15;;;;;;;;;3.00;1.00;;;;;;;;5006653;28;45484;-74
2023/01/08 11:36:45;;;;;;;;;2.00;1.00;;;;;;;;5011569;28;45549;-75
2023/01/08 11:39:11;;;;;;;;;1.00;1.00;;;;;;;;5001494;28;45458;-77
2023/01/08 11:41:46;;;;;;;;;1.33;0.00;;;;;;;;5014639;28;45267;-75
2023/01/08 11:44:21;;;;;;;;;3.67;1.00;;;;;;;;5004109;28;45470;-75
2023/01/08 11:46:46;;;;;;;;;2.00;0.33;;;;;;;;5012522;28;47071;-74
2023/01/08 11:49:29;;;;;;;;;1.00;1.00;;;;;;;;5008089;28;45265;-75
2023/01/08 11:51:57;;;;;;;;;2.00;1.00;;;;;;;;5002897;28;45185;-74
2023/01/08 11:54:33;;;;;;;;;0.00;0.00;;;;;;;;5009218;28;45476;-76
2023/01/08 11:57:16;;;;;;;;;2.00;0.67;;;;;;;;5012169;28;45596;-74
2023/01/08 11:59:59;;;;;;;;;2.67;0.00;;;;;;;;5011742;28;45376;-75
2023/01/08 12:02:48;;;;;;;;;1.00;1.00;;;;;;;;5010926;28;45478;-74
2023/01/08 12:05:23;;;;;;;;;0.00;0.00;;;;;;;;5017557;28;47206;-77
2023/01/08 12:07:57;;;;;;;;;1.00;1.00;;;;;;;;5016628;28;47715;-74
2023/01/08 12:10:26;;;;;;;;;2.00;2.00;;;;;;;;5017215;28;46110;-76
2023/01/08 12:13:06;;;;;;;;;2.67;1.00;;;;;;;;5009756;28;45584;-75
2023/01/08 12:15:46;;;;;;;;;2.33;1.00;;;;;;;;5016012;28;45360;-77
2023/01/08 12:18:14;;;;;;;;;1.00;1.00;;;;;;;;5009183;28;46163;-77
2023/01/08 12:20:47;;;;;;;;;2.00;0.00;;;;;;;;5018945;28;45359;-76
2023/01/08 12:23:19;;;;;;;;;1.67;1.00;;;;;;;;5015906;28;45372;-75
2023/01/08 12:25:52;;;;;;;;;2.00;0.33;;;;;;;;5020636;28;45268;-75
2023/01/08 12:28:36;;;;;;;;;0.00;0.00;;;;;;;;5013501;28;45483;-75
2023/01/08 12:31:10;;;;;;;;;3.33;1.00;;;;;;;;5019806;28;45354;-75
2023/01/08 12:33:46;;;;;;;;;2.67;1.00;;;;;;;;5012724;28;45214;-75
2023/01/08 12:36:14;;;;;;;;;2.33;1.00;;;;;;;;5017956;28;44777;-77
2023/01/08 12:38:43;;;;;;;;;0.33;0.33;;;;;;;;5016412;28;45394;-73
2023/01/08 12:41:12;;;;;;;;;1.00;1.00;;;;;;;;5019611;28;45360;-73
2023/01/08 12:43:41;;;;;;;;;4.00;2.00;;;;;;;;5012235;28;45272;-73
2023/01/08 12:46:09;;;;;;;;;1.00;1.00;;;;;;;;5021299;28;45397;-74
2023/01/08 12:48:35;;;;;;;;;8.00;6.50;;;;;;;;5013869;28;45170;-74
2023/01/08 12:51:06;;;;;;;;;8.75;7.75;;;;;;;;5023540;28;45336;-74
2023/01/08 12:53:37;;;;;;;;;2.00;1.00;;;;;;;;5014433;28;45401;-74
2023/01/08 12:56:41;;;;;;;;;3.67;2.00;;;;;;;;5018683;28;45252;-73
2023/01/08 12:59:12;;;;;;;;;11.25;6.00;;;;;;;;4999202;28;45543;-75
2023/01/08 13:01:40;;;;;;;;;1.00;1.00;;;;;;;;4996844;28;44879;-72
2023/01/08 13:04:06;;;;;;;;;13.75;12.50;;;;;;;;5009946;28;44737;-73
2023/01/08 13:06:32;;;;;;;;;5.25;5.00;;;;;;;;5016939;28;45342;-74
2023/01/08 13:08:58;;;;;;;;;3.67;3.00;;;;;;;;5006181;28;45349;-74
2023/01/08 13:11:24;;;;;;;;;5.00;5.00;;;;;;;;5018876;28;45457;-75
2023/01/08 13:13:57;;;;;;;;;58.75;47.75;;;;;;;;5009005;28;45468;-74
2023/01/08 13:16:23;;;;;;;;;3.00;1.00;;;;;;;;5018498;28;45382;-74
2023/01/08 13:18:59;;;;;;;;;6.00;4.00;;;;;;;;5008417;28;45545;-73
2023/01/08 13:21:29;;;;;;;;;76.00;57.00;;;;;;;;5018537;28;45564;-74
2023/01/08 13:24:03;;;;;;;;;64.00;50.00;;;;;;;;5015220;28;45336;-75
2023/01/08 13:26:32;;;;;;;;;353.80;294.60;;;;;;;;5017905;28;46686;-75
2023/01/08 13:29:21;;;;;;;;;19.50;16.25;;;;;;;;5001742;28;45355;-74
2023/01/08 13:31:46;;;;;;;;;21.00;20.00;;;;;;;;5012095;28;45466;-73
2023/01/08 13:34:19;;;;;;;;;14.50;12.50;;;;;;;;5003059;28;44793;-73
2023/01/08 13:36:54;;;;;;;;;59.00;47.75;;;;;;;;5013337;28;45355;-74
2023/01/08 13:39:21;;;;;;;;;5.25;5.00;;;;;;;;5002709;28;46303;-74
2023/01/08 13:42:03;;;;;;;;;90.00;78.25;;;;;;;;5015944;28;45415;-75
2023/01/08 13:44:30;;;;;;;;;84.75;70.50;;;;;;;;5008824;28;45304;-74
2023/01/08 13:47:05;;;;;;;;;31.50;24.50;;;;;;;;5013317;28;45578;-74
2023/01/08 13:49:35;;;;;;;;;55.00;42.50;;;;;;;;5008236;28;47936;-74
2023/01/08 13:52:01;;;;;;;;;20.50;16.00;;;;;;;;5013962;28;45316;-74
2023/01/08 13:54:26;;;;;;;;;4.00;4.00;;;;;;;;5015999;28;45505;-74
2023/01/08 13:56:52;;;;;;;;;13.67;9.33;;;;;;;;5016393;28;45559;-74
2023/01/08 13:59:35;;;;;;;;;3.00;1.00;;;;;;;;5018468;28;46281;-75
2023/01/08 14:02:00;;;;;;;;;1.33;0.67;;;;;;;;5016209;28;45316;-75
2023/01/08 14:04:26;;;;;;;;;0.00;0.00;;;;;;;;5017207;28;45423;-74
2023/01/08 14:06:51;;;;;;;;;1.00;1.00;;;;;;;;5013350;28;45463;-74
2023/01/08 14:09:21;;;;;;;;;1.00;0.67;;;;;;;;5007699;28;46196;-76
2023/01/08 14:11:49;;;;;;;;;1.67;1.00;;;;;;;;5015072;28;45470;-74
2023/01/08 14:14:18;;;;;;;;;1.00;0.00;;;;;;;;5015722;28;45407;-75
2023/01/08 14:16:45;;;;;;;;;2.00;1.00;;;;;;;;5015976;28;45474;-75
2023/01/08 14:19:14;;;;;;;;;1.00;0.00;;;;;;;;5017856;28;47336;-74
2023/01/08 14:21:39;;;;;;;;;3.00;1.00;;;;;;;;5016805;28;44777;-76
2023/01/08 14:24:05;;;;;;;;;5.00;1.00;;;;;;;;5016701;28;45215;-75
2023/01/08 14:26:31;;;;;;;;;0.33;0.33;;;;;;;;5016725;28;45772;-73
2023/01/08 14:28:56;;;;;;;;;0.67;0.00;;;;;;;;5017892;28;47158;-75
2023/01/08 14:31:23;;;;;;;;;1.33;0.33;;;;;;;;5016288;28;45285;-74
2023/01/08 14:33:50;;;;;;;;;0.00;0.00;;;;;;;;5013283;28;45359;-75
2023/01/08 14:36:16;;;;;;;;;1.00;1.00;;;;;;;;5016565;28;45546;-74
2023/01/08 14:38:41;;;;;;;;;0.00;0.00;;;;;;;;5008410;28;45770;-76
2023/01/08 14:41:09;;;;;;;;;0.00;0.00;;;;;;;;5012345;28;45264;-76
2023/01/08 14:43:38;;;;;;;;;1.00;0.00;;;;;;;;5009761;28;45282;-75